Time;durP1;ratioP1;P1;durP2;ratioP2;P2;SDS_P1;SDS_P2;PMS_P1;PMS_P2;Temp;Humidity;BMP_temperature;BMP_pressure;BME280_temperature;BME280_humidity;BME280_pressure;Samples;Min_cycle;Max_cycle;Signal;HPM_P1;HPM_P2
2022/12/15 00:40:14;;;;;;;28.63;14.35;;;;;;;-6.57;100.00;100601.19;5069203;28;20040;-64
2022/12/15 00:42:39;;;;;;;24.67;12.40;;;;;;;-6.66;100.00;100589.59;5069359;28;20037;-65
2022/12/15 00:45:05;;;;;;;29.02;16.40;;;;;;;-6.55;100.00;100605.34;5069070;28;20873;-65
2022/12/15 00:47:31;;;;;;;28.25;14.55;;;;;;;-6.56;100.00;100606.25;5068805;28;20471;-64
2022/12/15 01:20:19;;;;;;;32.03;13.90;;;;;;;-6.58;100.00;100628.03;5073053;28;20051;-65
2022/12/15 01:22:47;;;;;;;27.90;15.02;;;;;;;-6.59;100.00;100629.78;5052936;28;20060;-65
2022/12/15 01:25:14;;;;;;;31.52;16.45;;;;;;;-6.59;100.00;100632.38;5052888;28;20029;-65
2022/12/15 01:27:40;;;;;;;27.73;15.18;;;;;;;-6.62;100.00;100636.00;5052718;28;20139;-65
2022/12/15 01:30:07;;;;;;;30.42;16.90;;;;;;;-6.61;100.00;100635.06;5053020;28;20123;-65
2022/12/15 01:32:33;;;;;;;30.27;15.00;;;;;;;-6.61;100.00;100636.81;5052729;28;20036;-65
2022/12/15 01:34:58;;;;;;;24.60;14.43;;;;;;;-6.65;100.00;100638.78;5052920;28;20037;-65
2022/12/15 01:37:24;;;;;;;29.48;14.32;;;;;;;-6.63;100.00;100643.84;5052797;28;20017;-65
2022/12/15 01:42:33;;;;;;;30.95;16.13;;;;;;;-6.62;100.00;100648.97;5053036;28;20117;-65
2022/12/15 01:45:20;;;;;;;27.67;13.75;;;;;;;-6.63;100.00;100647.31;5052640;28;20462;-65
2022/12/15 01:47:45;;;;;;;29.20;15.85;;;;;;;-6.69;100.00;100642.47;5052600;28;20040;-65
2022/12/15 01:50:14;;;;;;;27.33;17.00;;;;;;;-6.75;100.00;100642.84;5052533;28;20029;-65
2022/12/15 01:52:40;;;;;;;28.40;15.65;;;;;;;-6.77;100.00;100651.63;5052349;28;20029;-65
2022/12/15 01:55:05;;;;;;;31.30;16.10;;;;;;;-6.78;100.00;100652.56;5052369;28;20475;-65
2022/12/15 01:57:34;;;;;;;27.73;14.70;;;;;;;-6.79;100.00;100653.47;5052365;28;20090;-65
2022/12/15 02:00:01;;;;;;;26.73;14.73;;;;;;;-6.81;100.00;100655.31;5052302;28;20031;-65
2022/12/15 02:02:29;;;;;;;35.13;17.98;;;;;;;-6.87;100.00;100653.91;5052349;28;20044;-65
2022/12/15 02:04:57;;;;;;;25.30;13.73;;;;;;;-6.86;100.00;100660.78;5051636;28;20052;-65
2022/12/15 02:07:22;;;;;;;24.98;14.52;;;;;;;-6.89;100.00;100654.03;5052102;28;20068;-65
2022/12/15 02:09:51;;;;;;;26.98;14.40;;;;;;;-6.93;100.00;100652.53;5051975;28;20123;-65
2022/12/15 02:12:44;;;;;;;28.52;15.40;;;;;;;-6.92;100.00;100663.72;5051928;28;20039;-65
2022/12/15 02:15:19;;;;;;;31.67;17.95;;;;;;;-6.98;100.00;100661.50;5052006;28;20052;-64
2022/12/15 02:17:50;;;;;;;25.65;15.48;;;;;;;-6.96;100.00;100668.25;5052014;28;20029;-64
2022/12/15 02:20:25;;;;;;;29.67;15.05;;;;;;;-6.95;100.00;100679.47;5051993;28;20106;-65
2022/12/15 02:23:10;;;;;;;27.27;13.88;;;;;;;-6.96;100.00;100676.03;5051881;28;20061;-65
2022/12/15 02:26:07;;;;;;;27.95;13.88;;;;;;;-7.00;100.00;100681.47;5051794;28;20033;-65
2022/12/15 02:28:36;;;;;;;26.27;14.55;;;;;;;-7.01;100.00;100690.19;5060191;28;20052;-66
2022/12/15 02:34:12;;;;;;;26.00;12.88;;;;;;;-7.08;100.00;100693.13;5071549;28;20079;-65
2022/12/15 02:36:48;;;;;;;28.40;15.90;;;;;;;-7.07;100.00;100694.81;5052086;28;20112;-65
2022/12/15 02:39:14;;;;;;;28.85;14.70;;;;;;;-7.06;100.00;100686.09;5052028;28;20973;-65
2022/12/15 02:41:42;;;;;;;27.02;14.75;;;;;;;-7.09;100.00;100688.03;5052153;28;20047;-65
2022/12/15 02:44:18;;;;;;;27.40;16.17;;;;;;;-7.10;100.00;100687.22;5052037;28;20102;-65
2022/12/15 02:46:53;;;;;;;28.85;14.95;;;;;;;-7.13;100.00;100684.75;5051857;28;20037;-65
2022/12/15 02:49:26;;;;;;;28.48;15.38;;;;;;;-7.19;100.00;100672.16;5051842;28;20021;-65
2022/12/15 02:52:14;;;;;;;31.08;15.35;;;;;;;-7.15;100.00;100680.59;5051873;28;20051;-65
2022/12/15 02:55:11;;;;;;;30.40;15.07;;;;;;;-7.14;100.00;100683.09;5011746;28;20045;-65
2022/12/15 02:58:04;;;;;;;25.92;14.73;;;;;;;-7.13;100.00;100689.13;5018532;28;20048;-65
2022/12/15 03:00:36;;;;;;;28.55;14.73;;;;;;;-7.12;100.00;100691.63;5051629;28;20032;-65
2022/12/15 03:03:01;;;;;;;30.25;14.48;;;;;;;-7.09;100.00;100698.41;5051367;28;20036;-65
2022/12/15 03:05:27;;;;;;;30.13;15.68;;;;;;;-7.15;100.00;100696.13;5033708;28;20021;-65
2022/12/15 03:07:53;;;;;;;27.35;14.65;;;;;;;-7.19;100.00;100685.13;5051483;28;20028;-65
2022/12/15 03:10:22;;;;;;;31.40;14.48;;;;;;;-7.23;100.00;100683.66;5051448;28;20025;-65
2022/12/15 03:12:49;;;;;;;28.42;14.43;;;;;;;-7.29;100.00;100683.97;5051398;28;20103;-65
2022/12/15 03:15:15;;;;;;;28.77;15.13;;;;;;;-7.23;100.00;100685.38;5050770;28;20495;-65
2022/12/15 03:17:40;;;;;;;30.30;16.88;;;;;;;-7.22;100.00;100687.06;5033088;28;20460;-65
2022/12/15 03:20:07;;;;;;;28.17;15.65;;;;;;;-7.22;100.00;100695.66;5051294;28;20035;-65
2022/12/15 03:22:32;;;;;;;27.15;15.85;;;;;;;-7.22;100.00;100693.06;5051112;28;20036;-65
2022/12/15 03:24:58;;;;;;;30.90;15.25;;;;;;;-7.31;100.00;100670.25;5055365;28;20387;-65
2022/12/15 03:27:23;;;;;;;26.45;15.55;;;;;;;-7.16;100.00;100704.84;5064373;28;20911;-67
2022/12/15 03:29:48;;;;;;;32.50;16.00;;;;;;;-7.14;100.00;100692.66;5046041;28;20073;-69
2022/12/15 03:32:14;;;;;;;29.77;17.02;;;;;;;-7.19;100.00;100702.44;5043200;28;20026;-69
2022/12/15 03:34:39;;;;;;;30.45;15.82;;;;;;;-7.14;100.00;100711.63;5046531;28;20029;-69
2022/12/15 03:37:05;;;;;;;28.75;16.40;;;;;;;-7.11;100.00;100710.59;5040427;28;20032;-69
2022/12/15 03:39:30;;;;;;;28.85;14.90;;;;;;;-7.17;100.00;100698.84;5049903;28;20029;-69
2022/12/15 03:41:55;;;;;;;28.17;14.65;;;;;;;-7.12;100.00;100704.59;5047960;28;20020;-69
2022/12/15 03:44:21;;;;;;;26.65;14.80;;;;;;;-7.12;100.00;100704.59;5050610;28;20080;-69
2022/12/15 03:46:46;;;;;;;27.40;14.77;;;;;;;-7.11;100.00;100703.66;5050426;28;20113;-69
2022/12/15 03:49:11;;;;;;;31.13;15.48;;;;;;;-7.09;100.00;100708.78;5047173;28;20096;-69
2022/12/15 03:51:37;;;;;;;30.15;17.00;;;;;;;-7.12;100.00;100711.53;5047515;28;20025;-69
2022/12/15 03:54:02;;;;;;;28.95;14.55;;;;;;;-7.10;100.00;100718.31;5047793;28;20040;-69
2022/12/15 03:56:27;;;;;;;30.27;15.85;;;;;;;-7.10;100.00;100720.91;5050479;28;20029;-69
2022/12/15 03:58:53;;;;;;;26.85;16.70;;;;;;;-7.09;100.00;100719.13;5044844;28;20032;-68
2022/12/15 04:01:26;;;;;;;29.50;14.85;;;;;;;-7.11;100.00;100716.63;5047207;28;20057;-69
2022/12/15 04:03:52;;;;;;;29.35;15.48;;;;;;;-7.10;100.00;100717.44;5041184;28;20040;-69
2022/12/15 04:06:17;;;;;;;29.13;16.42;;;;;;;-7.10;100.00;100722.63;5044298;28;20025;-69
2022/12/15 04:08:42;;;;;;;29.15;16.10;;;;;;;-7.16;100.00;100718.63;5045916;28;20116;-69
2022/12/15 04:11:08;;;;;;;28.67;16.55;;;;;;;-7.17;100.00;100719.56;5050271;28;20490;-69
2022/12/15 04:13:33;;;;;;;33.33;16.50;;;;;;;-7.17;100.00;100721.31;5050340;28;20482;-69
2022/12/15 04:16:00;;;;;;;27.10;16.35;;;;;;;-7.20;100.00;100717.16;5043882;28;20052;-69
2022/12/15 04:18:26;;;;;;;27.35;15.85;;;;;;;-7.20;100.00;100722.34;5049673;28;20028;-69
2022/12/15 04:20:51;;;;;;;29.13;16.73;;;;;;;-7.20;100.00;100714.56;5039705;28;20502;-69
2022/12/15 04:23:16;;;;;;;29.15;15.52;;;;;;;-7.22;100.00;100713.81;5038846;28;20037;-69
2022/12/15 05:32:01;;;;;;;29.45;16.23;;;;;;;-7.47;100.00;100747.16;5054991;28;20728;-68
2022/12/15 05:34:29;;;;;;;28.45;12.90;;;;;;;-7.48;100.00;100750.69;5065057;28;20037;-65
2022/12/15 05:36:56;;;;;;;31.27;17.35;;;;;;;-7.54;100.00;100750.09;5040660;28;20045;-65
2022/12/15 05:39:22;;;;;;;31.85;17.40;;;;;;;-7.53;100.00;100762.13;5050246;28;20025;-65
2022/12/15 05:41:49;;;;;;;31.02;15.57;;;;;;;-7.52;100.00;100762.94;5052666;28;20392;-65
2022/12/15 05:44:16;;;;;;;31.92;17.58;;;;;;;-7.51;100.00;100755.09;5052650;28;20032;-65
2022/12/15 05:46:42;;;;;;;34.50;18.67;;;;;;;-7.52;100.00;100762.94;5052464;28;20033;-64
2022/12/15 05:49:10;;;;;;;28.67;17.52;;;;;;;-7.56;100.00;100766.63;5052494;28;20479;-65
2022/12/15 05:51:40;;;;;;;32.60;16.83;;;;;;;-7.56;100.00;100767.47;5052403;28;20047;-65
2022/12/15 05:54:07;;;;;;;26.40;15.70;;;;;;;-7.53;100.00;100767.28;5052644;28;20634;-65
2022/12/15 05:56:33;;;;;;;33.03;17.63;;;;;;;-7.58;100.00;100758.94;5052405;28;20029;-65
2022/12/15 05:58:58;;;;;;;31.27;16.65;;;;;;;-7.53;100.00;100766.47;5052466;28;20352;-65
2022/12/15 06:01:24;;;;;;;35.38;16.73;;;;;;;-7.53;100.00;100767.28;5052251;28;20056;-65
2022/12/15 06:03:50;;;;;;;31.58;16.45;;;;;;;-7.51;100.00;100765.47;5052252;28;20036;-68
2022/12/15 06:06:15;;;;;;;29.75;16.15;;;;;;;-7.47;100.00;100784.25;5056182;28;20539;-68
2022/12/15 06:08:41;;;;;;;28.80;16.48;;;;;;;-7.46;100.00;100778.16;5056842;28;20025;-68
2022/12/15 06:11:10;;;;;;;25.92;16.48;;;;;;;-7.51;100.00;100773.22;5062137;28;20037;-68
2022/12/15 06:13:35;;;;;;;34.83;18.70;;;;;;;-7.45;100.00;100782.41;5058433;28;20047;-68
2022/12/15 06:16:12;;;;;;;29.77;16.80;;;;;;;-7.44;100.00;100785.84;5042602;28;20139;-69
2022/12/15 06:18:41;;;;;;;31.77;17.58;;;;;;;-7.43;100.00;100779.75;5052230;28;20025;-69
2022/12/15 06:21:09;;;;;;;36.65;19.25;;;;;;;-7.44;100.00;100788.44;5055231;28;20032;-69
2022/12/15 06:23:35;;;;;;;33.50;21.13;;;;;;;-7.41;100.00;100798.63;5057556;28;20029;-68
2022/12/15 06:26:27;;;;;;;27.20;17.80;;;;;;;-7.50;100.00;100781.84;5057129;28;20040;-68
2022/12/15 06:28:55;;;;;;;37.22;18.92;;;;;;;-7.40;100.00;100797.72;5051142;28;20072;-68
2022/12/15 06:31:21;;;;;;;35.80;20.52;;;;;;;-7.42;100.00;100794.38;5051883;28;20079;-68
2022/12/15 06:33:48;;;;;;;33.70;16.83;;;;;;;-7.48;100.00;100785.19;5051610;28;20044;-68
2022/12/15 06:36:15;;;;;;;35.90;18.33;;;;;;;-7.44;100.00;100784.09;5051857;28;20017;-68
2022/12/15 06:38:44;;;;;;;32.85;19.27;;;;;;;-7.47;100.00;100784.25;5051452;28;20033;-68
2022/12/15 06:41:12;;;;;;;30.38;18.75;;;;;;;-7.52;100.00;100783.66;5051952;28;20029;-68
2022/12/15 06:43:37;;;;;;;32.40;18.30;;;;;;;-7.50;100.00;100787.84;5051901;28;20033;-68
2022/12/15 06:46:03;;;;;;;37.92;20.08;;;;;;;-7.52;100.00;100788.84;5051781;28;20025;-68
2022/12/15 06:48:29;;;;;;;32.90;19.40;;;;;;;-7.53;100.00;100787.19;5051626;28;20518;-68
2022/12/15 06:50:55;;;;;;;34.10;18.08;;;;;;;-7.52;100.00;100791.44;5051614;28;20124;-68
2022/12/15 06:53:23;;;;;;;32.30;18.13;;;;;;;-7.53;100.00;100787.19;5051370;28;20153;-68
2022/12/15 06:55:49;;;;;;;36.63;20.38;;;;;;;-7.55;100.00;100794.19;5051473;28;20099;-68
2022/12/15 06:58:15;;;;;;;31.63;17.90;;;;;;;-7.56;100.00;100802.88;5051425;28;20025;-68
2022/12/15 07:00:42;;;;;;;33.35;16.80;;;;;;;-7.56;100.00;100798.53;5051172;28;20037;-65
2022/12/15 07:03:16;;;;;;;39.90;22.67;;;;;;;-7.58;100.00;100795.19;5051148;28;20079;-65
2022/12/15 07:05:42;;;;;;;39.70;19.38;;;;;;;-7.53;100.00;100798.38;5050988;28;20048;-65
2022/12/15 07:08:11;;;;;;;38.47;21.42;;;;;;;-7.52;100.00;100794.88;5051001;28;20385;-65
2022/12/15 07:10:39;;;;;;;36.15;21.63;;;;;;;-7.56;100.00;100793.34;5050899;28;20032;-65
2022/12/15 07:13:04;;;;;;;38.35;23.50;;;;;;;-7.50;100.00;100805.97;5050780;28;20040;-65
2022/12/15 07:15:30;;;;;;;34.58;22.10;;;;;;;-7.51;100.00;100803.47;5050864;28;20035;-65
2022/12/15 07:17:55;;;;;;;39.08;23.17;;;;;;;-7.50;100.00;100808.56;5050811;28;20036;-65
2022/12/15 07:20:21;;;;;;;33.80;19.55;;;;;;;-7.51;100.00;100809.50;5050704;28;20037;-65
2022/12/15 07:22:52;;;;;;;38.42;20.20;;;;;;;-7.53;100.00;100802.72;5050588;28;20383;-65
2022/12/15 07:25:18;;;;;;;40.22;22.15;;;;;;;-7.50;100.00;100821.50;5050282;28;20037;-67
2022/12/15 07:27:44;;;;;;;33.05;18.60;;;;;;;-7.49;100.00;100824.97;5052292;28;20048;-65
2022/12/15 07:30:11;;;;;;;36.92;20.80;;;;;;;-7.48;100.00;100818.03;5070030;28;20028;-65
2022/12/15 07:32:36;;;;;;;33.70;20.95;;;;;;;-7.48;100.00;100821.44;5052534;28;20033;-65
2022/12/15 07:35:04;;;;;;;35.92;19.88;;;;;;;-7.47;100.00;100822.28;5050948;28;20498;-65
2022/12/15 07:37:30;;;;;;;32.80;21.02;;;;;;;-7.50;100.00;100816.31;5050860;28;20640;-65
2022/12/15 07:39:55;;;;;;;31.92;18.15;;;;;;;-7.43;100.00;100826.38;5050634;28;20024;-65
2022/12/15 07:42:20;;;;;;;38.42;21.00;;;;;;;-7.39;100.00;100820.09;5050558;28;20653;-65
2022/12/15 07:44:46;;;;;;;34.95;21.20;;;;;;;-7.37;100.00;100810.50;5032723;28;20029;-65
2022/12/15 07:47:11;;;;;;;56.05;24.90;;;;;;;-7.35;100.00;100821.63;5050479;28;20028;-66
2022/12/15 07:49:38;;;;;;;38.13;20.42;;;;;;;-7.35;100.00;100826.81;5050478;28;20084;-65
2022/12/15 07:52:03;;;;;;;36.20;21.70;;;;;;;-7.34;100.00;100829.28;5050432;28;20053;-65
2022/12/15 07:54:29;;;;;;;34.90;20.48;;;;;;;-7.32;100.00;100822.28;5056326;28;20040;-67
2022/12/15 07:56:55;;;;;;;36.10;21.10;;;;;;;-7.27;100.00;100824.63;5060714;28;20036;-65
2022/12/15 07:59:20;;;;;;;33.60;20.67;;;;;;;-7.28;100.00;100823.81;5056856;28;20424;-65
2022/12/15 08:01:45;;;;;;;36.55;20.70;;;;;;;-7.26;100.00;100821.09;5032041;28;20036;-68
2022/12/15 08:04:11;;;;;;;39.60;22.17;;;;;;;-7.24;100.00;100832.22;5056839;28;20024;-68
2022/12/15 08:06:36;;;;;;;41.30;22.80;;;;;;;-7.22;100.00;100835.59;5061519;28;20127;-68
2022/12/15 08:09:02;;;;;;;40.63;22.70;;;;;;;-7.19;100.00;100844.94;5055412;28;20050;-68
2022/12/15 08:11:27;;;;;;;36.30;23.33;;;;;;;-7.17;100.00;100843.13;5055920;28;20111;-68
2022/12/15 08:13:52;;;;;;;37.58;21.95;;;;;;;-7.16;100.00;100839.59;5061195;28;20361;-68
2022/12/15 08:16:18;;;;;;;34.78;23.00;;;;;;;-7.13;100.00;100842.00;5060658;28;20028;-68
2022/12/15 08:18:44;;;;;;;37.25;21.33;;;;;;;-7.11;100.00;100847.94;5063875;28;20037;-68
2022/12/15 08:21:10;;;;;;;37.17;20.50;;;;;;;-7.06;100.00;100851.13;5063540;28;20032;-68
2022/12/15 08:23:37;;;;;;;38.38;23.05;;;;;;;-6.99;100.00;100851.66;5053139;28;20044;-68
2022/12/15 08:26:07;;;;;;;37.33;22.00;;;;;;;-6.94;100.00;100858.25;5061097;28;20032;-67
2022/12/15 08:28:34;;;;;;;34.67;21.20;;;;;;;-6.91;100.00;100858.06;5052292;28;20061;-68
2022/12/15 08:31:19;;;;;;;41.55;24.52;;;;;;;-6.82;100.00;100851.53;5045532;28;20067;-68
2022/12/15 08:33:46;;;;;;;39.17;24.92;;;;;;;-6.80;100.00;100846.28;5043319;28;20056;-68
2022/12/15 08:36:13;;;;;;;40.03;23.55;;;;;;;-6.71;100.00;100850.94;5049293;28;20464;-69
2022/12/15 08:38:40;;;;;;;36.70;21.83;;;;;;;-6.67;100.00;100853.28;5047353;28;20112;-68
2022/12/15 08:41:11;;;;;;;36.33;23.10;;;;;;;-6.61;100.00;100860.69;5042333;28;20025;-71
2022/12/15 08:43:37;;;;;;;40.15;23.25;;;;;;;-6.54;100.00;100865.56;5034063;28;20053;-73
2022/12/15 08:46:04;;;;;;;37.13;23.40;;;;;;;-6.46;100.00;100861.59;5042655;28;20041;-72
2022/12/15 08:48:29;;;;;;;38.20;24.95;;;;;;;-6.37;100.00;100868.03;5034751;28;20443;-72
2022/12/15 08:50:56;;;;;;;37.88;21.58;;;;;;;-6.30;100.00;100866.75;5034026;28;20047;-72
2022/12/15 08:53:22;;;;;;;44.30;26.42;;;;;;;-6.21;100.00;100863.66;5043252;28;20021;-72
2022/12/15 08:55:47;;;;;;;55.03;29.77;;;;;;;-6.18;100.00;100850.47;5035035;28;20028;-71
2022/12/15 08:58:12;;;;;;;46.47;27.65;;;;;;;-6.05;100.00;100853.19;5038239;28;20020;-71
2022/12/15 09:00:38;;;;;;;44.83;26.52;;;;;;;-5.92;100.00;100855.88;5039129;28;20071;-73
2022/12/15 09:03:03;;;;;;;40.13;22.50;;;;;;;-5.82;100.00;100859.56;5042681;28;20511;-65
2022/12/15 09:05:29;;;;;;;37.00;23.42;;;;;;;-5.70;100.00;100865.00;5038385;28;20033;-65
2022/12/15 09:07:56;;;;;;;39.17;24.73;;;;;;;-5.62;100.00;100860.16;5042440;28;20108;-64
2022/12/15 09:10:22;;;;;;;40.42;25.77;;;;;;;-5.50;100.00;100877.63;5043117;28;20033;-65
2022/12/15 09:12:48;;;;;;;45.05;26.63;;;;;;;-5.40;100.00;100885.66;5040604;28;20442;-64
2022/12/15 09:15:13;;;;;;;38.40;27.23;;;;;;;-5.34;100.00;100873.16;5039328;28;20020;-64
2022/12/15 09:17:39;;;;;;;44.42;25.25;;;;;;;-5.23;100.00;100876.88;5042162;28;20022;-65
2022/12/15 09:20:04;;;;;;;43.40;25.85;;;;;;;-5.12;100.00;100879.63;5037972;28;20074;-64
2022/12/15 09:22:30;;;;;;;40.33;23.42;;;;;;;-5.04;100.00;100882.56;5045842;28;20029;-65
2022/12/15 09:24:55;;;;;;;38.05;23.65;;;;;;;-4.98;100.00;100884.78;5042923;28;20434;-65
2022/12/15 09:27:21;;;;;;;42.15;26.27;;;;;;;-4.89;100.00;100888.59;5044557;28;20029;-65
2022/12/15 09:29:46;;;;;;;40.85;26.42;;;;;;;-4.89;100.00;100893.81;5054798;28;20352;-65
2022/12/15 09:32:12;;;;;;;37.20;22.73;;;;;;;-4.88;100.00;100898.88;5045631;28;20033;-64
2022/12/15 09:34:38;;;;;;;38.38;25.23;;;;;;;-4.86;100.00;100896.19;5067299;28;20028;-66
2022/12/15 09:37:04;;;;;;;43.88;29.02;;;;;;;-4.78;100.00;100908.72;5071951;28;20028;-66
2022/12/15 09:39:31;;;;;;;44.72;27.85;;;;;;;-4.71;100.00;100908.25;5071816;28;20112;-67
2022/12/15 09:41:59;;;;;;;46.22;26.58;;;;;;;-4.60;100.00;100919.75;5072000;28;20028;-66
2022/12/15 09:44:27;;;;;;;40.13;26.80;;;;;;;-4.52;100.00;100920.09;5071753;28;20039;-67
2022/12/15 09:47:17;;;;;;;40.13;24.67;;;;;;;-4.38;100.00;100916.59;5044207;28;20025;-72
2022/12/15 09:50:00;;;;;;;47.00;27.33;;;;;;;-4.31;100.00;100915.28;5055057;28;20039;-72
2022/12/15 09:52:32;;;;;;;42.63;27.17;;;;;;;-4.24;100.00;100914.78;5051632;28;20046;-72
2022/12/15 09:55:00;;;;;;;39.75;27.10;;;;;;;-4.19;100.00;100915.31;5057240;28;20035;-72
2022/12/15 09:57:43;;;;;;;40.47;24.58;;;;;;;-4.09;100.00;100923.34;5055706;28;20028;-72
2022/12/15 10:00:27;;;;;;;40.55;25.27;;;;;;;-4.00;100.00;100927.13;5057132;28;20025;-72
2022/12/15 10:03:30;;;;;;;38.90;25.70;;;;;;;-3.89;100.00;100923.81;5057931;28;20033;-72
2022/12/15 10:06:09;;;;;;;40.25;25.60;;;;;;;-3.85;100.00;100920.06;5052143;28;20021;-72
2022/12/15 10:08:47;;;;;;;41.53;27.45;;;;;;;-3.76;100.00;100916.84;5059244;28;20056;-72
2022/12/15 10:11:56;;;;;;;41.53;26.55;;;;;;;-3.64;100.00;100920.38;5055417;28;20109;-72
2022/12/15 10:14:45;;;;;;;38.67;25.40;;;;;;;-3.56;100.00;100928.56;5058582;28;20464;-72
2022/12/15 10:17:47;;;;;;;39.45;25.20;;;;;;;-3.46;100.00;100928.75;5054073;28;20025;-72
2022/12/15 10:20:28;;;;;;;40.95;23.30;;;;;;;-3.41;100.00;100918.84;5043372;28;20043;-72
2022/12/15 10:23:00;;;;;;;41.17;26.10;;;;;;;-3.38;100.00;100909.06;5034306;28;20435;-71
2022/12/15 10:25:30;;;;;;;40.60;23.77;;;;;;;-3.29;100.00;100918.00;5051043;28;20048;-70
2022/12/15 10:28:17;;;;;;;42.08;26.77;;;;;;;-3.22;100.00;100915.78;5055221;28;20052;-70
2022/12/15 10:30:51;;;;;;;40.40;24.33;;;;;;;-3.22;100.00;100901.00;5071047;28;20493;-70
2022/12/15 10:33:19;;;;;;;39.13;24.38;;;;;;;-3.06;100.00;100924.25;5070764;28;20502;-70
2022/12/15 10:35:46;;;;;;;40.70;24.42;;;;;;;-3.05;100.00;100914.63;5070694;28;20043;-70
2022/12/15 10:38:24;;;;;;;40.65;23.55;;;;;;;-2.93;100.00;100924.22;5070956;28;20015;-70
2022/12/15 10:40:57;;;;;;;38.67;25.90;;;;;;;-2.88;100.00;100924.72;5070643;28;20619;-71
2022/12/15 10:43:34;;;;;;;44.45;24.35;;;;;;;-2.87;100.00;100921.16;5061539;28;20028;-71
2022/12/15 10:46:21;;;;;;;36.65;24.58;;;;;;;-2.75;100.00;100927.28;5051419;28;20309;-71
2022/12/15 10:48:49;;;;;;;41.55;26.83;;;;;;;-2.68;100.00;100929.34;5058206;28;20028;-71
2022/12/15 10:51:20;;;;;;;38.97;24.88;;;;;;;-2.61;100.00;100921.94;5052813;28;20028;-71
2022/12/15 10:53:48;;;;;;;;;;;;;;;-2.54;100.00;100930.13;5061847;28;20111;-71
2022/12/15 10:56:25;;;;;;;37.53;23.88;;;;;;;-2.48;100.00;100924.50;5068423;28;19919;-67
2022/12/15 10:58:54;;;;;;;46.33;25.90;;;;;;;-2.46;100.00;100928.66;5064624;28;20464;-67
2022/12/15 11:01:31;;;;;;;39.13;24.55;;;;;;;-2.38;100.00;100924.66;5068275;28;20032;-66
2022/12/15 11:03:56;;;;;;;44.03;26.35;;;;;;;-2.33;100.00;100920.78;5070567;28;20090;-66
2022/12/15 11:06:31;;;;;;;40.40;24.98;;;;;;;-2.26;100.00;100927.19;5052115;28;20040;-67
2022/12/15 11:09:08;;;;;;;37.05;23.10;;;;;;;-2.19;100.00;100921.53;5058049;28;20052;-67
2022/12/15 11:14:41;;;;;;;38.67;23.50;;;;;;;-2.13;100.00;100923.69;5051311;28;20044;-67
2022/12/15 11:17:07;;;;;;;42.15;26.30;;;;;;;-2.11;100.00;100932.28;5050829;28;20029;-67
2022/12/15 11:19:57;;;;;;;41.38;26.48;;;;;;;-2.07;100.00;100928.47;5032898;28;20037;-67
2022/12/15 11:22:41;;;;;;;37.25;24.85;;;;;;;-2.04;100.00;100929.09;5051628;28;20510;-66
2022/12/15 11:25:23;;;;;;;36.20;25.60;;;;;;;-1.98;100.00;100923.41;5053327;28;20115;-66
2022/12/15 11:27:53;;;;;;;45.35;26.20;;;;;;;-2.02;100.00;100905.44;5052486;28;20340;-65
2022/12/15 11:30:24;;;;;;;36.67;23.73;;;;;;;-1.92;100.00;100918.66;5052791;28;20490;-66
2022/12/15 11:32:58;;;;;;;42.42;26.75;;;;;;;-1.95;100.00;100904.03;5053447;28;20037;-66
2022/12/15 11:35:40;;;;;;;41.13;25.27;;;;;;;-1.83;100.00;100908.38;5051176;28;20020;-66
2022/12/15 11:38:24;;;;;;;38.08;25.85;;;;;;;-1.78;100.00;100918.47;5053531;28;20025;-66
2022/12/15 11:40:50;;;;;;;42.05;23.77;;;;;;;-1.77;100.00;100907.91;5052676;28;20043;-66
2022/12/15 11:43:43;;;;;;;42.70;24.77;;;;;;;-1.73;100.00;100921.56;5053842;28;20049;-66
2022/12/15 11:46:08;;;;;;;40.28;24.92;;;;;;;-1.69;100.00;100916.94;5052403;28;20078;-66
2022/12/15 11:48:47;;;;;;;41.43;26.60;;;;;;;-1.66;100.00;100921.94;5053439;28;20418;-66
2022/12/15 11:51:24;;;;;;;44.03;27.15;;;;;;;-1.61;100.00;100918.03;5051983;28;20306;-66
2022/12/15 11:54:02;;;;;;;40.45;26.92;;;;;;;-1.56;100.00;100905.44;5053767;28;20060;-65
2022/12/15 11:56:35;;;;;;;37.60;27.92;;;;;;;-1.52;100.00;100908.63;5053369;28;20471;-66
2022/12/15 11:59:39;;;;;;;46.03;28.08;;;;;;;-1.47;100.00;100892.59;5052655;28;20059;-65
2022/12/15 12:02:52;;;;;;;39.70;27.20;;;;;;;-1.35;100.00;100905.56;5052379;28;20475;-65
2022/12/15 12:05:42;;;;;;;47.42;29.27;;;;;;;-1.30;100.00;100902.63;4990045;28;20044;-65
2022/12/15 12:08:34;;;;;;;52.08;28.55;;;;;;;-1.22;100.00;100900.22;5052339;28;20051;-66
2022/12/15 12:11:15;;;;;;;44.20;27.42;;;;;;;-1.19;100.00;100902.59;5033335;28;20494;-65
2022/12/15 12:14:09;;;;;;;45.55;28.20;;;;;;;-1.13;100.00;100896.06;5053241;28;20055;-66
2022/12/15 12:16:42;;;;;;;39.53;25.85;;;;;;;-1.08;100.00;100890.47;5018648;28;20036;-66
2022/12/15 12:19:18;;;;;;;49.35;28.95;;;;;;;-1.10;100.00;100877.53;5051868;28;20044;-65
2022/12/15 12:21:48;;;;;;;44.15;27.17;;;;;;;-1.01;100.00;100882.00;5052671;28;20016;-66
2022/12/15 12:24:28;;;;;;;47.13;30.47;;;;;;;-0.96;100.00;100871.19;5053612;28;20495;-65
2022/12/15 12:26:59;;;;;;;42.40;29.27;;;;;;;-0.90;100.00;100882.00;5052219;28;20111;-66
2022/12/15 12:29:33;;;;;;;43.23;29.43;;;;;;;-0.83;100.00;100876.28;5052177;28;20036;-65
2022/12/15 12:32:16;;;;;;;43.60;26.48;;;;;;;-0.79;100.00;100875.06;5051907;28;20025;-66
2022/12/15 12:34:56;;;;;;;38.95;25.67;;;;;;;-0.73;100.00;100878.03;5053265;28;20426;-66
2022/12/15 12:37:26;;;;;;;39.97;28.08;;;;;;;-0.71;100.00;100870.03;5052559;28;20597;-65
2022/12/15 12:39:55;;;;;;;36.83;25.98;;;;;;;-0.65;100.00;100866.97;5051725;28;20515;-65
2022/12/15 12:42:26;;;;;;;39.83;25.60;;;;;;;-0.61;100.00;100870.16;5051677;28;20028;-66
2022/12/15 12:44:52;;;;;;;42.00;26.50;;;;;;;-0.58;99.99;100877.75;5052706;28;20031;-65
2022/12/15 12:47:30;;;;;;;48.67;25.70;;;;;;;-0.60;99.54;100870.03;5032344;28;20388;-66
2022/12/15 12:50:00;;;;;;;41.22;24.83;;;;;;;-0.54;100.00;100880.00;5057325;28;20024;-66
2022/12/15 12:52:32;;;;;;;37.15;24.70;;;;;;;-0.47;99.75;100873.31;5057250;28;20032;-65
2022/12/15 12:54:58;;;;;;;;;;;;;;;-0.41;100.00;100877.22;5057804;28;20071;-66
2022/12/15 12:57:38;;;;;;;36.20;21.52;;;;;;;-0.43;98.97;100859.97;5040243;28;19919;-66
2022/12/15 13:00:06;;;;;;;45.28;25.23;;;;;;;-0.40;98.99;100865.78;5056675;28;20097;-66
2022/12/15 13:02:36;;;;;;;39.53;24.27;;;;;;;-0.36;99.72;100869.81;5057597;28;20032;-67
2022/12/15 13:05:20;;;;;;;41.22;24.45;;;;;;;-0.33;99.39;100855.66;5058854;28;20108;-66
2022/12/15 13:08:12;;;;;;;38.35;27.02;;;;;;;-0.26;98.95;100857.63;5057624;28;20086;-66
2022/12/15 13:10:42;;;;;;;42.35;28.00;;;;;;;-0.26;98.65;100847.16;5013811;28;20041;-66
2022/12/15 13:13:26;;;;;;;41.45;24.45;;;;;;;-0.27;98.24;100842.03;5038962;28;20486;-67
2022/12/15 13:16:30;;;;;;;39.33;24.77;;;;;;;-0.25;98.54;100840.94;5054649;28;20060;-66
2022/12/15 13:19:03;;;;;;;42.78;25.13;;;;;;;-0.22;98.31;100832.00;5051050;28;20029;-66
2022/12/15 13:21:41;;;;;;;36.70;21.83;;;;;;;-0.15;98.56;100825.28;5055907;28;20047;-65
2022/12/15 13:24:34;;;;;;;35.75;21.17;;;;;;;-0.14;98.17;100819.09;5037158;28;20109;-66
2022/12/15 13:27:11;;;;;;;38.33;26.48;;;;;;;-0.32;98.12;100808.34;5056773;28;20047;-66
2022/12/15 13:30:00;;;;;;;36.92;22.98;;;;;;;-0.33;98.46;100813.72;5015484;28;20041;-66
2022/12/15 13:32:36;;;;;;;42.88;25.15;;;;;;;-0.28;98.09;100825.47;5013265;28;20078;-66
2022/12/15 13:35:14;;;;;;;37.08;24.25;;;;;;;-0.20;98.52;100831.88;5022681;28;20032;-66
2022/12/15 13:37:46;;;;;;;31.88;22.55;;;;;;;-0.15;98.32;100822.69;5029202;28;20025;-66
2022/12/15 13:40:31;;;;;;;36.38;22.38;;;;;;;-0.03;98.38;100824.28;5014088;28;20029;-67
2022/12/15 13:43:09;;;;;;;42.45;23.52;;;;;;;0.12;97.89;100823.94;5029200;28;20064;-66
2022/12/15 13:45:44;;;;;;;37.47;22.67;;;;;;;0.18;97.66;100829.50;5028989;28;20112;-65